CheckWX is a tool to help pilots better visualize weather data.  It is not intended as a substitute for an official pre-flight weather briefing.

13:47:33 UTC

KSHD METAR
Shenandoah Valley Regional Airport
Staunton/Waynesboro/Harrisonburg, Virginia, USA
Current

13 mins ago

KSHD 071335Z AUTO 17004KT 10SM CLR 25/21 A3011 RMK AO2 T02450207
Observed
Jul-7 @ 13:35 UTC
Wind
  • 170° at 4 KTS
Visibility
10 SM
Flight Rules
VFR
Cloud Levels
  • Clear skies
Temperature
24°C / 75°F
Dewpoint
21°C / 70°F
Humidity
83%
Altimeter
30.11" Hg
Pressure
1019.62 hPa
Previous

33 mins ago

KSHD 071315Z AUTO 00000KT 10SM CLR 24/21 A3011 RMK AO2 T02400208
Observed
Jul-7 @ 13:15 UTC
Visibility
10 SM
Flight Rules
VFR
Cloud Levels
  • Clear skies
Temperature
24°C / 75°F
Dewpoint
21°C / 70°F
Humidity
83%
Altimeter
30.11" Hg
Pressure
1019.62 hPa
Previous

53 mins ago

KSHD 071255Z AUTO 00000KT 10SM CLR 23/21 A3011 RMK AO2 T02310205
Observed
Jul-7 @ 12:55 UTC
Visibility
10 SM
Flight Rules
VFR
Cloud Levels
  • Clear skies
Temperature
23°C / 73°F
Dewpoint
20°C / 68°F
Humidity
83%
Altimeter
30.11" Hg
Pressure
1019.62 hPa